createdAt,value
2018-08-17T00:01:05.795Z,69.10
2018-08-17T00:03:35.090Z,69.30
2018-08-17T00:06:04.724Z,69.50
2018-08-17T00:08:34.074Z,69.70
2018-08-17T00:11:03.466Z,70.20
2018-08-17T00:13:32.809Z,70.10
2018-08-17T00:16:02.129Z,69.90
2018-08-17T00:18:31.431Z,70.10
2018-08-17T00:21:00.841Z,69.90
2018-08-17T00:23:30.137Z,70.00
2018-08-17T00:26:05.869Z,70.00
2018-08-17T00:28:35.208Z,69.80
2018-08-17T00:31:04.625Z,69.80
2018-08-17T00:33:33.978Z,70.00
2018-08-17T00:36:03.293Z,70.20
2018-08-17T00:38:33.057Z,70.30
2018-08-17T00:41:02.427Z,70.30
2018-08-17T00:43:31.760Z,70.30
2018-08-17T00:46:01.795Z,70.10
2018-08-17T00:48:31.286Z,70.30
2018-08-17T00:51:00.667Z,70.20
2018-08-17T00:53:30.085Z,70.30
2018-08-17T00:55:59.421Z,70.60
2018-08-17T00:58:28.894Z,71.70
2018-08-17T01:00:58.274Z,70.70
2018-08-17T01:03:28.676Z,70.40
2018-08-17T01:05:58.000Z,70.40
2018-08-17T01:08:27.483Z,70.70
2018-08-17T01:10:56.897Z,71.20
2018-08-17T01:13:26.210Z,70.90
2018-08-17T01:15:55.535Z,70.70
2018-08-17T01:18:24.912Z,71.00
2018-08-17T01:20:54.412Z,71.20
2018-08-17T01:23:23.769Z,71.20
2018-08-17T01:25:53.093Z,71.10
2018-08-17T01:28:22.516Z,71.10
2018-08-17T01:30:51.901Z,71.20
2018-08-17T01:33:21.250Z,71.10
2018-08-17T01:35:50.600Z,71.00
2018-08-17T01:38:19.953Z,71.10
2018-08-17T01:40:49.357Z,72.40
2018-08-17T01:43:18.736Z,71.10
2018-08-17T01:45:48.037Z,71.30
2018-08-17T01:48:17.363Z,71.00
2018-08-17T01:50:46.781Z,70.70
2018-08-17T01:53:16.096Z,71.20
2018-08-17T01:55:45.445Z,71.20
2018-08-17T01:58:14.773Z,71.30
2018-08-17T02:00:45.241Z,71.70
2018-08-17T02:03:14.573Z,72.00
2018-08-17T02:05:43.964Z,72.10
2018-08-17T02:08:13.304Z,72.10
2018-08-17T02:10:43.537Z,72.10
2018-08-17T02:13:12.857Z,72.20
2018-08-17T02:15:42.273Z,72.20
2018-08-17T02:18:11.606Z,72.40
2018-08-17T02:20:41.611Z,72.30
2018-08-17T02:23:10.964Z,72.10
2018-08-17T02:25:40.314Z,72.20
2018-08-17T02:28:09.681Z,72.10
2018-08-17T02:30:39.202Z,72.20
2018-08-17T02:33:08.532Z,72.30
2018-08-17T02:35:37.861Z,72.40
2018-08-17T02:38:07.193Z,72.60
2018-08-17T02:40:36.970Z,72.70
2018-08-17T02:43:06.369Z,72.90
2018-08-17T02:45:35.737Z,72.90
2018-08-17T02:48:05.157Z,73.00
2018-08-17T02:50:34.565Z,72.80
2018-08-17T02:53:03.897Z,73.20
2018-08-17T02:55:33.237Z,73.50
2018-08-17T02:58:02.550Z,73.40
2018-08-17T03:00:31.967Z,73.90
2018-08-17T03:03:01.360Z,73.30
2018-08-17T03:05:30.688Z,73.10
2018-08-17T03:08:00.023Z,73.00
2018-08-17T03:10:29.397Z,72.60
2018-08-17T03:12:59.129Z,72.40
2018-08-17T03:17:57.249Z,99.90
2018-08-17T03:20:26.823Z,99.90
2018-08-17T03:22:56.149Z,92.50
2018-08-17T03:25:25.502Z,90.50
2018-08-17T03:27:54.886Z,93.90
2018-08-17T03:30:24.328Z,91.40
2018-08-17T03:32:53.656Z,90.40
2018-08-17T03:35:22.995Z,72.30
2018-08-17T03:37:52.311Z,71.80
2018-08-17T03:40:21.661Z,71.20
2018-08-17T03:42:51.092Z,70.80
2018-08-17T03:45:20.492Z,70.40
2018-08-17T03:47:50.012Z,70.20
2018-08-17T03:50:19.572Z,70.20
2018-08-17T03:52:49.150Z,70.00
2018-08-17T03:55:18.469Z,70.00
2018-08-17T03:57:47.828Z,69.80
2018-08-17T04:00:17.394Z,70.60
2018-08-17T04:02:46.733Z,69.60
2018-08-17T04:05:16.076Z,69.50
2018-08-17T04:07:45.408Z,69.50
2018-08-17T04:10:14.834Z,69.40
2018-08-17T04:12:44.132Z,69.30
2018-08-17T04:15:13.437Z,69.30
2018-08-17T04:17:43.387Z,69.20
2018-08-17T04:20:12.954Z,69.30
2018-08-17T04:22:42.502Z,69.10
2018-08-17T04:25:12.913Z,69.20
2018-08-17T04:27:42.472Z,69.10
2018-08-17T04:30:12.051Z,69.10
2018-08-17T04:32:42.356Z,69.20
2018-08-17T04:35:11.879Z,69.10
2018-08-17T04:37:41.258Z,69.10
2018-08-17T04:40:10.609Z,69.10
2018-08-17T04:42:39.959Z,69.00
2018-08-17T04:45:09.806Z,68.90
2018-08-17T04:47:39.245Z,68.90
2018-08-17T04:50:09.836Z,69.00
2018-08-17T04:52:40.005Z,68.90
2018-08-17T04:55:09.853Z,68.80
2018-08-17T04:57:41.325Z,68.70
2018-08-17T05:00:11.410Z,68.80
2018-08-17T05:02:41.062Z,68.90
2018-08-17T05:05:10.573Z,68.90
2018-08-17T05:07:40.286Z,69.10
2018-08-17T05:10:09.897Z,68.70
2018-08-17T05:12:39.288Z,69.10
2018-08-17T05:15:08.733Z,69.60
2018-08-17T05:17:38.204Z,69.50
2018-08-17T05:20:07.846Z,70.20
2018-08-17T05:22:37.300Z,70.10
2018-08-17T05:25:06.912Z,69.90
2018-08-17T05:27:36.398Z,69.90
2018-08-17T05:30:06.087Z,69.50
2018-08-17T05:32:35.731Z,69.60
2018-08-17T05:35:05.482Z,69.60
2018-08-17T05:37:35.127Z,69.80
2018-08-17T05:40:05.433Z,69.50
2018-08-17T05:42:35.082Z,69.50
2018-08-17T05:45:04.849Z,69.30
2018-08-17T05:47:34.422Z,69.20
2018-08-17T05:50:04.107Z,69.30
2018-08-17T05:52:34.182Z,69.50
2018-08-17T05:55:03.929Z,69.30
2018-08-17T05:57:33.606Z,69.20
2018-08-17T06:00:03.393Z,69.10
2018-08-17T06:02:33.089Z,69.10
2018-08-17T06:05:02.783Z,69.30
2018-08-17T06:07:32.487Z,69.30
2018-08-17T06:10:02.125Z,69.00
2018-08-17T06:12:31.719Z,68.80
2018-08-17T06:15:01.306Z,68.90
2018-08-17T06:17:30.815Z,69.00
2018-08-17T06:20:00.656Z,69.10
2018-08-17T06:22:30.440Z,69.20
2018-08-17T06:25:00.665Z,69.20
2018-08-17T06:27:30.349Z,69.50
2018-08-17T06:29:59.892Z,69.20
2018-08-17T06:32:29.408Z,69.10
2018-08-17T06:34:59.510Z,69.00
2018-08-17T06:37:28.918Z,68.90
2018-08-17T06:39:58.411Z,68.90
2018-08-17T06:42:27.793Z,68.90
2018-08-17T06:44:57.294Z,68.90
2018-08-17T06:47:26.798Z,68.80
2018-08-17T06:49:56.305Z,68.90
2018-08-17T06:52:25.801Z,68.80
2018-08-17T06:54:55.229Z,68.80
2018-08-17T06:57:25.454Z,68.80
2018-08-17T06:59:55.056Z,68.70
2018-08-17T07:02:24.505Z,68.80
2018-08-17T07:04:54.077Z,68.70
2018-08-17T07:07:23.729Z,68.80
2018-08-17T07:09:53.328Z,68.90
2018-08-17T07:12:22.833Z,68.90
2018-08-17T07:14:52.391Z,69.00
2018-08-17T07:17:22.016Z,69.00
2018-08-17T07:19:51.589Z,69.10
2018-08-17T07:22:21.109Z,69.10
2018-08-17T07:24:50.699Z,69.10
2018-08-17T07:27:20.234Z,69.10
2018-08-17T07:29:49.961Z,69.10
2018-08-17T07:32:19.590Z,68.40
2018-08-17T07:43:48.268Z,69.20
2018-08-17T07:46:18.781Z,71.70
2018-08-17T07:48:59.075Z,72.00
2018-08-17T09:01:15.694Z,74.30
2018-08-17T09:03:45.182Z,73.10
2018-08-17T09:06:14.719Z,73.00
2018-08-17T09:08:44.960Z,72.70
2018-08-17T09:11:14.550Z,72.70
2018-08-17T09:13:44.039Z,72.80
2018-08-17T09:16:13.582Z,72.80
2018-08-17T09:18:43.177Z,72.80
2018-08-17T09:21:12.829Z,72.50
2018-08-17T09:23:42.321Z,72.50
2018-08-17T09:26:11.913Z,72.80
2018-08-17T09:28:42.440Z,72.30
2018-08-17T09:31:12.430Z,72.20
2018-08-17T09:33:43.226Z,72.40
2018-08-17T09:36:12.792Z,72.60
2018-08-17T09:38:42.318Z,72.60
2018-08-17T09:41:11.912Z,72.50
2018-08-17T09:43:41.455Z,73.00
2018-08-17T09:46:10.996Z,72.60
2018-08-17T09:48:40.549Z,72.90
2018-08-17T09:51:10.502Z,73.40
2018-08-17T09:53:40.028Z,72.90
2018-08-17T09:56:09.544Z,72.60
2018-08-17T09:58:39.116Z,72.70
2018-08-17T10:01:13.726Z,72.30
2018-08-17T10:03:44.659Z,72.20
2018-08-17T10:06:19.251Z,72.10
2018-08-17T10:08:53.726Z,72.00
2018-08-17T10:11:23.423Z,72.00
2018-08-17T10:13:52.966Z,71.70
2018-08-17T10:16:23.105Z,71.50
2018-08-17T10:18:52.624Z,71.30
2018-08-17T10:21:22.320Z,71.10
2018-08-17T10:23:51.667Z,71.20
2018-08-17T10:26:21.316Z,71.20
2018-08-17T10:28:50.865Z,71.90
2018-08-17T10:31:20.372Z,72.20
2018-08-17T10:33:50.198Z,72.30
2018-08-17T10:36:19.690Z,72.30
2018-08-17T10:38:49.236Z,72.20
2018-08-17T10:41:18.845Z,72.80
2018-08-17T10:43:48.444Z,72.80
2018-08-17T10:46:18.041Z,72.80
2018-08-17T10:48:47.652Z,71.90
2018-08-17T10:51:17.291Z,72.40
2018-08-17T10:53:47.958Z,72.60
2018-08-17T10:56:17.610Z,72.90
2018-08-17T10:58:47.089Z,73.00
2018-08-17T11:01:16.732Z,73.10
2018-08-17T11:03:46.297Z,72.90
2018-08-17T11:06:17.869Z,72.50
2018-08-17T11:08:47.399Z,72.30
2018-08-17T11:11:16.887Z,73.30
2018-08-17T11:13:46.415Z,72.30
2018-08-17T11:16:16.042Z,72.00
2018-08-17T11:18:46.627Z,72.10
2018-08-17T11:21:16.336Z,72.10
2018-08-17T11:23:45.990Z,71.80
2018-08-17T11:26:15.561Z,72.10
2018-08-17T11:28:45.089Z,71.30
2018-08-17T11:31:14.716Z,71.40
2018-08-17T11:33:47.597Z,71.10
2018-08-17T11:36:26.067Z,71.20
2018-08-17T11:38:55.622Z,70.90
2018-08-17T11:41:25.310Z,71.40
2018-08-17T11:44:00.219Z,71.20
2018-08-17T11:46:29.969Z,71.20
2018-08-17T11:48:59.627Z,70.90
2018-08-17T11:51:29.339Z,70.40
2018-08-17T11:53:59.135Z,70.50
2018-08-17T11:56:28.837Z,70.60
2018-08-17T11:58:59.295Z,70.50
2018-08-17T12:01:29.029Z,70.50
2018-08-17T12:04:01.674Z,70.80
2018-08-17T12:06:31.656Z,70.50
2018-08-17T12:09:01.414Z,70.50
2018-08-17T12:11:31.413Z,70.90
2018-08-17T12:14:04.823Z,70.50
2018-08-17T12:16:37.509Z,70.30
2018-08-17T12:19:09.447Z,70.50
2018-08-17T12:21:40.121Z,70.30
2018-08-17T12:24:09.910Z,70.50
2018-08-17T12:26:44.692Z,70.60
2018-08-17T12:29:14.461Z,70.30
2018-08-17T12:31:44.246Z,70.20
2018-08-17T12:34:30.943Z,70.20
2018-08-17T12:43:14.133Z,70.30
2018-08-17T12:45:44.404Z,70.30
2018-08-17T12:48:15.171Z,70.70
2018-08-17T12:50:45.621Z,70.70
2018-08-17T12:53:15.417Z,70.60
2018-08-17T12:55:44.983Z,70.40
2018-08-17T12:58:15.226Z,70.60
2018-08-17T13:00:46.951Z,70.50
2018-08-17T13:03:18.003Z,70.50
2018-08-17T13:05:52.659Z,70.40
2018-08-17T13:08:23.672Z,70.40
2018-08-17T13:10:53.301Z,70.40
2018-08-17T13:13:22.974Z,70.50
2018-08-17T13:15:57.615Z,70.50
2018-08-17T13:18:27.398Z,70.40
2018-08-17T13:20:57.194Z,70.30
2018-08-17T13:23:26.755Z,70.20
2018-08-17T13:25:56.581Z,70.40
2018-08-17T13:28:26.301Z,70.50
2018-08-17T13:30:55.986Z,70.20
2018-08-17T13:33:26.660Z,70.30
2018-08-17T13:35:56.378Z,70.20
2018-08-17T13:38:34.761Z,70.30
2018-08-17T13:41:31.263Z,70.20
2018-08-17T13:44:16.773Z,70.20
2018-08-17T13:46:55.212Z,70.20
2018-08-17T13:49:26.119Z,70.30
2018-08-17T13:51:55.720Z,70.40
2018-08-17T13:54:25.399Z,70.50
2018-08-17T13:56:54.947Z,70.20
2018-08-17T13:59:24.630Z,70.20
2018-08-17T14:01:54.309Z,70.20
2018-08-17T14:04:23.916Z,70.30
2018-08-17T14:06:53.531Z,70.40
2018-08-17T14:09:23.292Z,70.30
2018-08-17T14:11:53.239Z,70.30
2018-08-17T14:14:22.753Z,70.00
2018-08-17T14:16:52.370Z,70.30
2018-08-17T14:20:24.835Z,70.20
2018-08-17T14:22:54.332Z,70.30
2018-08-17T14:25:23.884Z,70.20
2018-08-17T14:27:53.402Z,70.20
2018-08-17T14:30:22.997Z,70.20
2018-08-17T14:32:52.554Z,70.20
2018-08-17T14:35:22.144Z,70.10
2018-08-17T14:37:51.690Z,70.10
2018-08-17T14:40:22.229Z,71.10
2018-08-17T14:42:51.767Z,70.50
2018-08-17T14:45:21.367Z,70.40
2018-08-17T14:47:50.861Z,70.20
2018-08-17T14:50:20.478Z,70.20
2018-08-17T14:52:49.953Z,70.40
2018-08-17T14:55:19.493Z,70.50
2018-08-17T14:57:49.034Z,70.30
2018-08-17T15:00:18.670Z,70.30
2018-08-17T15:02:48.883Z,70.30
2018-08-17T15:05:18.472Z,70.30
2018-08-17T15:07:48.047Z,70.20
2018-08-17T15:10:17.634Z,70.10
2018-08-17T15:12:48.283Z,70.20
2018-08-17T15:15:17.830Z,70.30
2018-08-17T15:17:47.404Z,70.50
2018-08-17T15:20:17.129Z,70.50
2018-08-17T15:22:46.752Z,70.50
2018-08-17T15:25:16.386Z,70.20
2018-08-17T15:27:46.010Z,70.30
2018-08-17T15:30:15.731Z,70.50
2018-08-17T15:32:45.346Z,70.50
2018-08-17T15:35:14.845Z,70.30
2018-08-17T15:37:44.537Z,70.30
2018-08-17T15:40:14.096Z,70.20
2018-08-17T15:42:43.625Z,70.20
2018-08-17T15:45:13.965Z,70.70
2018-08-17T15:47:50.241Z,70.70
2018-08-17T15:50:21.079Z,70.80
2018-08-17T15:52:50.633Z,70.80
2018-08-17T15:55:20.285Z,70.70
2018-08-17T15:57:49.874Z,70.50
2018-08-17T16:00:20.598Z,70.60
2018-08-17T16:02:50.000Z,70.60
2018-08-17T16:05:19.364Z,70.40
2018-08-17T16:07:48.784Z,70.80
2018-08-17T16:10:18.357Z,70.70
2018-08-17T16:12:47.920Z,70.80
2018-08-17T16:15:18.438Z,70.70
2018-08-17T16:17:48.015Z,71.10
2018-08-17T16:20:18.331Z,70.90
2018-08-17T16:22:47.813Z,70.60
2018-08-17T16:25:18.351Z,70.70
2018-08-17T16:27:47.884Z,70.50
2018-08-17T16:30:17.559Z,70.80
2018-08-17T16:32:48.224Z,71.10
2018-08-17T16:35:19.230Z,70.60
2018-08-17T16:37:49.414Z,71.00
2018-08-17T16:40:19.296Z,70.90
2018-08-17T16:42:51.389Z,71.20
2018-08-17T16:45:21.150Z,70.80
2018-08-17T16:47:50.672Z,70.80
2018-08-17T16:50:20.211Z,71.00
2018-08-17T16:52:49.814Z,70.80
2018-08-17T16:55:19.388Z,70.60
2018-08-17T16:57:48.925Z,71.30
2018-08-17T17:00:18.618Z,70.60
2018-08-17T17:02:48.194Z,70.70
2018-08-17T17:05:17.773Z,70.90
2018-08-17T17:07:47.401Z,71.00
2018-08-17T17:10:17.513Z,70.80
2018-08-17T17:12:47.125Z,70.80
2018-08-17T17:15:20.550Z,70.70
2018-08-17T17:18:10.901Z,70.60
2018-08-17T17:20:40.708Z,70.70
2018-08-17T17:23:11.580Z,70.50
2018-08-17T17:25:41.443Z,70.50
2018-08-17T17:28:10.933Z,70.30
2018-08-17T17:30:50.910Z,70.40
2018-08-17T17:33:20.577Z,70.40
2018-08-17T17:35:50.243Z,70.10
2018-08-17T17:38:19.741Z,70.00
2018-08-17T17:40:49.369Z,70.00
2018-08-17T17:43:19.754Z,70.20
2018-08-17T17:45:49.363Z,70.10
2018-08-17T17:48:20.749Z,70.10
2018-08-17T17:50:50.389Z,70.10
2018-08-17T17:53:19.936Z,70.10
2018-08-17T17:55:51.006Z,70.00
2018-08-17T17:58:21.808Z,70.10
2018-08-17T18:00:57.626Z,70.10
2018-08-17T18:03:28.669Z,70.10
2018-08-17T18:06:03.882Z,70.00
2018-08-17T18:08:33.469Z,70.10
2018-08-17T18:11:03.220Z,70.10
2018-08-17T18:13:32.823Z,70.10
2018-08-17T18:16:02.464Z,70.20
2018-08-17T18:18:32.103Z,70.20
2018-08-17T18:21:01.709Z,71.00
2018-08-17T18:23:31.231Z,70.20
2018-08-17T18:26:00.922Z,70.20
2018-08-17T18:28:30.496Z,70.20
2018-08-17T18:31:00.063Z,70.20
2018-08-17T18:33:29.702Z,70.30
2018-08-17T18:35:59.307Z,70.20
2018-08-17T18:38:28.808Z,70.20
2018-08-17T18:40:58.476Z,70.30
2018-08-17T18:43:28.020Z,70.20
2018-08-17T18:45:57.623Z,70.20
2018-08-17T18:48:27.490Z,70.30
2018-08-17T18:50:58.313Z,70.20
2018-08-17T18:53:27.862Z,70.20
2018-08-17T18:55:57.416Z,70.20
2018-08-17T18:58:26.990Z,70.20
2018-08-17T19:00:56.561Z,70.00
2018-08-17T19:03:26.306Z,70.20
2018-08-17T19:05:55.882Z,70.20
2018-08-17T19:08:25.456Z,70.20
2018-08-17T19:10:55.170Z,70.20
2018-08-17T19:13:24.752Z,70.30
2018-08-17T19:15:55.000Z,70.30
2018-08-17T19:18:29.054Z,70.20
2018-08-17T19:21:04.774Z,70.20
2018-08-17T19:23:34.366Z,70.20
2018-08-17T19:26:03.924Z,70.20
2018-08-17T19:28:33.531Z,70.20
2018-08-17T19:31:03.200Z,70.20
2018-08-17T19:33:32.808Z,70.10
2018-08-17T19:36:03.257Z,70.10
2018-08-17T19:38:42.820Z,70.20
2018-08-17T19:41:12.466Z,70.00
2018-08-17T19:43:42.010Z,70.10
2018-08-17T19:46:11.708Z,70.00
2018-08-17T19:48:42.358Z,70.10
2018-08-17T19:51:19.393Z,70.00
2018-08-17T19:53:49.035Z,70.10
2018-08-17T19:56:18.673Z,70.10
2018-08-17T19:58:48.231Z,70.10
2018-08-17T20:01:17.884Z,70.10
2018-08-17T20:03:47.419Z,70.00
2018-08-17T20:06:17.088Z,70.00
2018-08-17T20:08:46.693Z,70.10
2018-08-17T20:11:16.309Z,70.10
2018-08-17T20:13:46.021Z,70.00
2018-08-17T20:16:24.972Z,70.10
2018-08-17T20:18:55.329Z,70.00
2018-08-17T20:21:26.109Z,70.00
2018-08-17T20:23:55.783Z,70.00
2018-08-17T20:26:26.551Z,70.00
2018-08-17T20:28:55.917Z,70.10
2018-08-17T20:31:25.960Z,70.00
2018-08-17T20:33:55.675Z,70.00
2018-08-17T20:36:25.374Z,70.00
2018-08-17T20:38:55.108Z,69.90
2018-08-17T20:41:24.842Z,69.90
2018-08-17T20:43:54.542Z,69.90
2018-08-17T20:46:24.520Z,69.90
2018-08-17T20:48:54.578Z,69.90
2018-08-17T20:51:27.256Z,69.90
2018-08-17T20:53:59.476Z,69.90
2018-08-17T20:56:29.754Z,69.90
2018-08-17T20:58:59.390Z,69.90
2018-08-17T21:01:29.172Z,69.90
2018-08-17T21:03:58.942Z,69.90
2018-08-17T21:06:28.599Z,69.90
2018-08-17T21:08:58.410Z,70.00
2018-08-17T21:11:28.309Z,69.90
2018-08-17T21:13:57.952Z,69.90
2018-08-17T21:16:27.966Z,70.00
2018-08-17T21:18:58.268Z,70.40
2018-08-17T21:21:28.141Z,69.90
2018-08-17T21:23:57.902Z,69.90
2018-08-17T21:26:28.172Z,69.80
2018-08-17T21:28:58.082Z,69.90
2018-08-17T21:31:27.836Z,69.80
2018-08-17T21:33:57.631Z,69.80
2018-08-17T21:36:27.303Z,69.80
2018-08-17T21:39:12.574Z,69.80
2018-08-17T21:41:45.287Z,69.80
2018-08-17T21:44:17.895Z,69.80
2018-08-17T21:47:05.640Z,70.70
2018-08-17T21:49:36.790Z,69.80
2018-08-17T21:52:09.716Z,69.80
2018-08-17T21:54:41.667Z,70.00
2018-08-17T21:57:11.017Z,70.10
2018-08-17T21:59:45.542Z,69.40
2018-08-17T22:02:14.948Z,70.20
2018-08-17T22:04:44.399Z,70.20
2018-08-17T22:07:24.149Z,70.00
2018-08-17T22:09:54.469Z,70.20
2018-08-17T22:12:23.940Z,70.70
2018-08-17T22:14:53.219Z,70.20
2018-08-17T22:17:33.886Z,70.00
2018-08-17T22:20:03.649Z,70.60
2018-08-17T22:22:33.149Z,70.80
2018-08-17T22:25:05.211Z,70.90
2018-08-17T22:27:34.550Z,70.20
2018-08-17T22:30:04.021Z,70.40
2018-08-17T22:32:33.373Z,70.60
2018-08-17T22:35:02.817Z,70.40
2018-08-17T22:37:32.204Z,69.80
2018-08-17T22:40:01.561Z,69.70
2018-08-17T22:42:30.891Z,69.90
2018-08-17T22:45:00.241Z,70.00
2018-08-17T22:47:29.564Z,69.90
2018-08-17T22:50:00.605Z,69.90
2018-08-17T22:52:35.024Z,70.00
2018-08-17T22:55:07.193Z,70.50
2018-08-17T22:57:36.635Z,70.60
2018-08-17T23:00:15.879Z,70.90
2018-08-17T23:02:46.133Z,71.20
2018-08-17T23:05:17.961Z,70.80
2018-08-17T23:07:47.760Z,70.50
2018-08-17T23:10:18.846Z,70.50
2018-08-17T23:12:49.192Z,70.50
2018-08-17T23:15:18.552Z,70.50
2018-08-17T23:17:50.549Z,70.90
2018-08-17T23:20:24.925Z,71.20
2018-08-17T23:22:55.612Z,71.20
2018-08-17T23:25:24.973Z,71.50
2018-08-17T23:27:54.650Z,71.70
2018-08-17T23:30:28.284Z,71.80
2018-08-17T23:42:23.821Z,71.80
